createdAt,value
2018-12-14T00:03:20.449Z,3.01
2018-12-14T00:08:25.254Z,3.02
2018-12-14T00:13:28.226Z,3.02
2018-12-14T00:18:31.302Z,3.01
2018-12-14T00:23:34.147Z,3.00
2018-12-14T00:28:36.947Z,2.98
2018-12-14T00:33:39.795Z,3.00
2018-12-14T00:38:42.747Z,2.97
2018-12-14T00:43:45.440Z,2.98
2018-12-14T00:54:27.256Z,2.59
2018-12-14T00:59:30.062Z,2.49
2018-12-14T01:04:32.953Z,2.55
2018-12-14T01:09:35.907Z,2.64
2018-12-14T01:14:40.845Z,2.64
2018-12-14T01:19:43.935Z,2.66
2018-12-14T01:24:47.630Z,2.67
2018-12-14T01:29:50.413Z,2.67
2018-12-14T01:34:53.230Z,2.64
2018-12-14T01:39:55.974Z,2.67
2018-12-14T01:44:58.782Z,2.70
2018-12-14T01:50:01.808Z,2.73
2018-12-14T01:55:05.445Z,2.76
2018-12-14T02:00:08.486Z,2.76
2018-12-14T02:05:11.369Z,2.79
2018-12-14T02:10:14.257Z,2.83
2018-12-14T02:15:17.145Z,2.83
2018-12-14T02:20:19.895Z,2.82
2018-12-14T02:25:22.797Z,2.82
2018-12-14T02:30:46.582Z,2.81
2018-12-14T02:41:02.183Z,2.82
2018-12-14T02:46:05.074Z,2.77
2018-12-14T02:51:07.845Z,2.71
2018-12-14T02:56:10.822Z,2.61
2018-12-14T03:01:13.688Z,2.52
2018-12-14T03:06:16.733Z,2.44
2018-12-14T03:11:19.478Z,2.39
2018-12-14T03:16:22.271Z,2.32
2018-12-14T03:21:25.020Z,2.29
2018-12-14T03:26:27.831Z,2.34
2018-12-14T03:31:30.672Z,2.34
2018-12-14T03:36:33.481Z,2.28
2018-12-14T03:41:36.594Z,2.26
2018-12-14T03:46:39.486Z,2.27
2018-12-14T03:51:42.581Z,2.18
2018-12-14T03:56:45.649Z,2.15
2018-12-14T04:01:48.510Z,2.16
2018-12-14T04:06:51.357Z,2.22
2018-12-14T04:11:54.193Z,2.23
2018-12-14T04:16:57.349Z,2.29
2018-12-14T04:22:00.168Z,2.26
2018-12-14T04:27:03.038Z,2.30
2018-12-14T04:32:06.829Z,2.32
2018-12-14T04:37:09.594Z,2.27
2018-12-14T04:42:12.229Z,2.24
2018-12-14T04:47:15.469Z,2.19
2018-12-14T04:52:18.241Z,2.23
2018-12-14T04:57:20.980Z,2.23
2018-12-14T05:02:23.657Z,2.25
2018-12-14T05:07:26.754Z,2.20
2018-12-14T05:12:29.683Z,2.25
2018-12-14T05:17:32.739Z,2.26
2018-12-14T05:22:35.561Z,2.23
2018-12-14T05:27:38.439Z,2.23
2018-12-14T05:32:41.233Z,2.20
2018-12-14T05:37:44.154Z,2.22
2018-12-14T05:42:47.866Z,2.21
2018-12-14T05:47:50.564Z,2.21
2018-12-14T05:52:53.294Z,2.22
2018-12-14T05:57:55.951Z,2.20
2018-12-14T06:02:58.719Z,2.20
2018-12-14T06:08:01.402Z,2.22
2018-12-14T06:13:09.090Z,2.19
2018-12-14T06:18:09.182Z,2.19
2018-12-14T06:23:11.967Z,2.18
2018-12-14T06:28:14.641Z,2.17
2018-12-14T06:33:17.432Z,2.18
2018-12-14T06:38:20.293Z,2.12
2018-12-14T06:43:23.572Z,2.11
2018-12-14T06:48:26.448Z,2.10
2018-12-14T06:53:29.751Z,2.12
2018-12-14T06:58:32.703Z,2.09
2018-12-14T07:03:35.709Z,2.08
2018-12-14T07:08:38.528Z,2.07
2018-12-14T07:13:41.337Z,2.07
2018-12-14T07:18:45.694Z,2.09
2018-12-14T07:23:48.449Z,2.06
2018-12-14T07:28:52.229Z,2.06
2018-12-14T07:33:54.949Z,2.06
2018-12-14T07:38:57.997Z,2.09
2018-12-14T07:44:00.849Z,2.10
2018-12-14T07:49:03.894Z,2.08
2018-12-14T07:54:06.877Z,2.03
2018-12-14T07:59:10.508Z,2.08
2018-12-14T08:04:13.618Z,2.10
2018-12-14T08:09:16.617Z,2.11
2018-12-14T08:14:19.625Z,2.12
2018-12-14T08:19:22.291Z,2.13
2018-12-14T08:24:25.161Z,2.16
2018-12-14T08:29:28.272Z,2.13
2018-12-14T08:34:31.138Z,2.13
2018-12-14T08:39:34.612Z,2.15
2018-12-14T08:44:37.632Z,2.19
2018-12-14T08:49:40.850Z,2.19
2018-12-14T08:54:43.689Z,2.21
2018-12-14T08:59:46.421Z,2.21
2018-12-14T09:04:49.452Z,2.23
2018-12-14T09:09:52.269Z,2.25
2018-12-14T09:14:54.993Z,2.28
2018-12-14T09:19:58.225Z,2.29
2018-12-14T09:25:02.048Z,2.32
2018-12-14T09:30:06.261Z,2.29
2018-12-14T09:35:09.449Z,2.35
2018-12-14T09:40:12.633Z,2.40
2018-12-14T09:45:15.836Z,2.43
2018-12-14T09:50:18.988Z,2.37
2018-12-14T09:55:21.848Z,2.39
2018-12-14T10:00:24.790Z,2.42
2018-12-14T10:05:27.707Z,2.43
2018-12-14T10:10:30.725Z,2.46
2018-12-14T10:15:33.712Z,2.50
2018-12-14T10:20:36.764Z,2.51
2018-12-14T10:25:39.962Z,2.56
2018-12-14T10:30:42.813Z,2.58
2018-12-14T10:35:45.792Z,2.62
2018-12-14T10:40:49.057Z,2.70
2018-12-14T10:45:52.801Z,2.70
2018-12-14T10:50:55.883Z,2.65
2018-12-14T10:55:58.955Z,2.68
2018-12-14T11:01:07.758Z,2.76
2018-12-14T11:06:10.743Z,2.75
2018-12-14T11:11:13.675Z,2.75
2018-12-14T11:16:17.273Z,2.76
2018-12-14T11:21:20.206Z,2.74
2018-12-14T11:26:23.092Z,2.77
2018-12-14T11:31:25.916Z,2.79
2018-12-14T11:36:29.438Z,2.84
2018-12-14T11:41:32.566Z,2.74
2018-12-14T11:46:35.184Z,2.75
2018-12-14T11:51:38.761Z,2.81
2018-12-14T11:56:41.573Z,2.83
2018-12-14T12:01:44.395Z,2.88
2018-12-14T12:06:47.345Z,2.90
2018-12-14T12:11:50.050Z,2.91
2018-12-14T12:16:52.922Z,2.90
2018-12-14T12:21:55.922Z,2.93
2018-12-14T12:26:58.764Z,2.92
2018-12-14T12:32:01.776Z,2.93
2018-12-14T12:37:04.790Z,2.89
2018-12-14T12:42:07.620Z,2.87
2018-12-14T12:47:11.613Z,2.87
2018-12-14T12:52:14.607Z,2.92
2018-12-14T12:57:17.821Z,2.86
2018-12-14T13:02:20.653Z,2.81
2018-12-14T13:07:23.848Z,2.83
2018-12-14T13:12:27.212Z,2.82
2018-12-14T13:17:29.969Z,2.77
2018-12-14T13:22:32.701Z,2.75
2018-12-14T13:27:35.724Z,2.76
2018-12-14T13:32:38.783Z,2.75
2018-12-14T13:37:41.886Z,2.77
2018-12-14T13:42:44.885Z,2.69
2018-12-14T13:47:48.020Z,2.69
2018-12-14T13:52:50.809Z,2.70
2018-12-14T13:57:53.839Z,2.69
2018-12-14T14:02:56.639Z,2.66
2018-12-14T14:07:59.633Z,2.57
2018-12-14T14:13:02.594Z,2.58
2018-12-14T14:18:05.562Z,2.57
2018-12-14T14:23:08.745Z,2.57
2018-12-14T14:28:11.448Z,2.57
2018-12-14T14:33:14.574Z,2.53
2018-12-14T14:38:18.214Z,2.57
2018-12-14T14:43:21.351Z,2.58
2018-12-14T14:48:24.181Z,2.55
2018-12-14T14:53:27.000Z,2.57
2018-12-14T14:58:29.896Z,2.58
2018-12-14T15:03:32.847Z,2.58
2018-12-14T15:08:35.879Z,2.56
2018-12-14T15:13:38.865Z,2.56
2018-12-14T15:18:41.812Z,2.55
2018-12-14T15:23:44.842Z,2.54
2018-12-14T15:28:47.529Z,2.51
2018-12-14T15:33:50.254Z,2.44
2018-12-14T15:38:53.132Z,2.44
2018-12-14T15:43:56.142Z,2.45
2018-12-14T15:48:59.055Z,2.45
2018-12-14T15:54:01.807Z,2.47
2018-12-14T15:59:05.042Z,2.46
2018-12-14T16:04:08.049Z,2.46
2018-12-14T16:09:11.116Z,2.46
2018-12-14T16:14:14.672Z,2.49
2018-12-14T16:19:17.721Z,2.50
2018-12-14T16:24:21.050Z,2.45
2018-12-14T16:29:24.097Z,2.46
2018-12-14T16:34:27.119Z,2.45
2018-12-14T16:39:30.405Z,2.45
2018-12-14T16:44:33.267Z,2.47
2018-12-14T16:49:36.008Z,2.48
2018-12-14T16:54:39.303Z,2.48
2018-12-14T16:59:42.388Z,2.46
2018-12-14T17:04:45.720Z,2.48
2018-12-14T17:09:48.923Z,2.47
2018-12-14T17:14:51.778Z,2.47
2018-12-14T17:19:55.005Z,2.46
2018-12-14T17:24:58.065Z,2.46
2018-12-14T17:30:00.833Z,2.45
2018-12-14T17:35:04.480Z,2.45
2018-12-14T17:40:07.371Z,2.44
2018-12-14T17:45:12.198Z,2.42
2018-12-14T17:50:15.003Z,2.40
2018-12-14T17:55:17.914Z,2.39
2018-12-14T18:00:20.664Z,2.39
2018-12-14T18:05:23.747Z,2.38
2018-12-14T18:10:26.496Z,2.36
2018-12-14T18:15:29.416Z,2.36
2018-12-14T18:20:32.052Z,2.34
2018-12-14T18:25:34.976Z,2.33
2018-12-14T18:30:37.773Z,2.33
2018-12-14T18:35:40.582Z,2.33
2018-12-14T18:40:43.479Z,2.33
2018-12-14T18:45:52.951Z,2.32
2018-12-14T18:50:51.254Z,2.33
2018-12-14T18:55:54.092Z,2.33
2018-12-14T19:00:57.036Z,2.32
2018-12-14T19:06:00.088Z,2.31
2018-12-14T19:11:02.984Z,2.29
2018-12-14T19:16:06.070Z,2.26
2018-12-14T19:21:08.796Z,2.25
2018-12-14T19:26:11.810Z,2.22
2018-12-14T19:31:14.537Z,2.20
2018-12-14T19:36:17.603Z,2.19
2018-12-14T19:41:20.603Z,2.19
2018-12-14T19:46:26.493Z,2.17
2018-12-14T19:51:29.565Z,2.19
2018-12-14T19:56:32.479Z,2.17
2018-12-14T20:01:35.638Z,2.15
2018-12-14T20:06:38.518Z,2.12
2018-12-14T20:11:41.399Z,2.12
2018-12-14T20:16:44.168Z,2.12
2018-12-14T20:21:47.092Z,2.11
2018-12-14T20:26:52.814Z,2.11
2018-12-14T20:31:55.892Z,2.09
2018-12-14T20:36:58.774Z,2.08
2018-12-14T20:42:01.698Z,2.11
2018-12-14T20:47:04.573Z,2.08
2018-12-14T20:52:07.586Z,2.06
2018-12-14T20:57:13.107Z,2.02
2018-12-14T21:02:15.898Z,2.03
2018-12-14T21:07:18.956Z,2.05
2018-12-14T21:12:21.815Z,2.06
2018-12-14T21:17:24.567Z,2.02
2018-12-14T21:22:27.260Z,1.98
2018-12-14T21:27:30.418Z,2.01
2018-12-14T21:32:33.325Z,2.00
2018-12-14T21:37:36.121Z,2.01
2018-12-14T21:42:39.002Z,2.01
2018-12-14T21:47:41.765Z,2.00
2018-12-14T21:52:44.537Z,2.02
2018-12-14T21:57:47.552Z,2.03
2018-12-14T22:02:50.421Z,2.01
2018-12-14T22:07:52.961Z,1.98
2018-12-14T22:12:55.845Z,1.98
2018-12-14T22:17:58.688Z,1.91
2018-12-14T22:23:01.526Z,1.89
2018-12-14T22:28:04.434Z,1.87
2018-12-14T22:33:07.484Z,1.82
2018-12-14T22:38:10.269Z,1.82
2018-12-14T22:43:13.155Z,1.79
2018-12-14T22:48:15.999Z,1.79
2018-12-14T22:53:18.887Z,1.80
2018-12-14T22:58:21.683Z,1.83
2018-12-14T23:03:24.616Z,1.80
2018-12-14T23:08:28.598Z,1.80
2018-12-14T23:13:31.549Z,1.77
2018-12-14T23:18:34.224Z,1.79
2018-12-14T23:23:37.101Z,1.79
2018-12-14T23:28:40.062Z,1.77
2018-12-14T23:33:42.849Z,1.76
2018-12-14T23:38:45.610Z,1.75
2018-12-14T23:43:48.442Z,1.73
2018-12-14T23:48:51.212Z,1.74
2018-12-14T23:53:54.274Z,1.74
2018-12-14T23:58:56.975Z,1.73
